Pendergrass, Georgia
Current Conditions -  °F | °C
As of 7:15 AM on Thursday 18 Dec 2014 (Local Time) from K19A Reporting Station
Clear Clear  
Wind Chill: 37°   Ceiling: Unl
Heat Index: 37°   Visibility: 10mi
Dew Point: 32°   Wind: 3mph
Humidity: 81%   Direction: 310°NW
Pressure: 30.14"   Gusts: NA
Location:  34.16°N, 83.68°W
Report Text: K19A 181215Z AUTO 31003KT 10SM CLR 03/00 A3014 RMK AO2
Loading
Personal Weather Stations






























Interactive Weather Map New forecast layout! Learn more

10-Day Weather Forecast

Advertisements
Track Severe Weather on mobile